Time;durP1;ratioP1;P1;durP2;ratioP2;P2;SDS_P1;SDS_P2;PMS_P1;PMS_P2;Temp;Humidity;BMP_temperature;BMP_pressure;BME280_temperature;BME280_humidity;BME280_pressure;Samples;Min_cycle;Max_cycle;Signal;HPM_P1;HPM_P2
2022/01/15 00:00:30;;;;;;;0.10;0.10;;;;;;;23.50;13.82;98946.81;5034449;28;20055;-73
2022/01/15 00:02:55;;;;;;;0.10;0.10;;;;;;;23.62;14.06;98955.25;5034562;28;20116;-73
2022/01/15 00:05:21;;;;;;;0.10;0.10;;;;;;;23.55;13.89;98959.53;5034616;28;20022;-73
2022/01/15 00:07:48;;;;;;;0.10;0.10;;;;;;;23.61;13.90;98967.31;5034485;28;20024;-73
2022/01/15 00:10:14;;;;;;;0.10;0.10;;;;;;;23.65;13.99;98970.22;5034522;28;20021;-72
2022/01/15 00:12:40;;;;;;;0.10;0.10;;;;;;;23.56;14.14;98966.59;5034119;28;20100;-74
2022/01/15 00:15:08;;;;;;;0.10;0.10;;;;;;;23.53;14.22;98961.78;5035062;28;20029;-73
2022/01/15 00:17:46;;;;;;;0.10;0.10;;;;;;;23.54;14.11;98960.66;5034273;28;20025;-73
2022/01/15 00:20:16;;;;;;;0.10;0.10;;;;;;;23.46;14.39;98977.72;5034045;28;20070;-73
2022/01/15 00:22:41;;;;;;;0.10;0.10;;;;;;;23.58;14.05;98978.03;5034345;28;20029;-74
2022/01/15 00:25:07;;;;;;;0.10;0.10;;;;;;;23.51;14.49;98996.69;5034174;28;20464;-73
2022/01/15 00:27:32;;;;;;;0.20;0.20;;;;;;;23.55;14.23;98975.91;5034164;28;20517;-73
2022/01/15 00:29:58;;;;;;;0.10;0.10;;;;;;;23.54;14.24;98999.66;5033058;28;20036;-73
2022/01/15 00:32:23;;;;;;;0.10;0.10;;;;;;;23.47;14.46;98995.72;5034007;28;20128;-74
2022/01/15 00:34:48;;;;;;;0.10;0.10;;;;;;;23.53;14.43;99006.19;5032660;28;20029;-74
2022/01/15 00:37:14;;;;;;;0.10;0.10;;;;;;;23.57;14.58;99007.19;5033719;28;20103;-73
2022/01/15 00:39:39;;;;;;;0.20;0.20;;;;;;;23.55;14.48;99020.31;5033983;28;20021;-73
2022/01/15 00:42:08;;;;;;;0.10;0.10;;;;;;;23.53;14.54;99024.50;5033633;28;20029;-73
2022/01/15 00:44:33;;;;;;;0.10;0.10;;;;;;;23.58;14.61;99024.38;5034191;28;20120;-73
2022/01/15 00:46:58;;;;;;;0.10;0.10;;;;;;;23.56;14.39;99029.31;5033376;28;20041;-73
2022/01/15 00:49:24;;;;;;;0.10;0.10;;;;;;;23.50;14.45;99025.09;5033550;28;20029;-73
2022/01/15 00:51:49;;;;;;;0.15;0.10;;;;;;;23.51;14.53;99034.88;5033467;28;20025;-73
2022/01/15 00:54:15;;;;;;;0.10;0.10;;;;;;;23.54;14.70;99026.09;5033875;28;20040;-73
2022/01/15 00:56:40;;;;;;;0.10;0.10;;;;;;;23.43;14.61;99029.03;5033777;28;20025;-73
2022/01/15 00:59:05;;;;;;;0.10;0.10;;;;;;;23.55;14.76;99030.44;5033522;28;20522;-73
2022/01/15 01:01:31;;;;;;;0.10;0.10;;;;;;;23.47;14.51;99042.06;5033583;28;20029;-73
2022/01/15 01:03:56;;;;;;;0.10;0.10;;;;;;;23.51;14.71;99043.06;5033529;28;20022;-73
2022/01/15 01:06:22;;;;;;;0.10;0.10;;;;;;;23.59;14.31;99042.34;5033599;28;20044;-73
2022/01/15 01:08:47;;;;;;;0.10;0.10;;;;;;;23.46;14.47;99040.44;5033212;28;20037;-73
2022/01/15 01:11:16;;;;;;;0.10;0.10;;;;;;;23.56;14.55;99034.75;5015457;28;20033;-72
2022/01/15 01:24:25;;;;;;;0.17;0.17;;;;;;;23.53;14.54;99040.84;5033262;28;19924;-73
2022/01/15 01:34:37;;;;;;;0.10;0.10;;;;;;;23.48;14.36;99060.03;5037364;28;20048;-73
2022/01/15 01:37:14;;;;;;;0.10;0.10;;;;;;;23.47;14.62;99066.59;5037336;28;20047;-74
2022/01/15 01:39:49;;;;;;;0.10;0.10;;;;;;;23.50;14.60;99061.34;5021192;28;20037;-73
2022/01/15 01:42:36;;;;;;;0.10;0.10;;;;;;;23.49;14.43;99075.28;5037190;28;20025;-72
2022/01/15 01:45:12;;;;;;;0.20;0.10;;;;;;;23.51;14.25;99083.94;5037091;28;20390;-74
2022/01/15 01:47:41;;;;;;;0.10;0.10;;;;;;;23.52;14.19;99080.91;5036954;28;20026;-73
2022/01/15 01:50:17;;;;;;;0.10;0.10;;;;;;;23.45;14.45;99077.81;5036830;28;20151;-73
2022/01/15 01:52:46;;;;;;;0.10;0.10;;;;;;;23.50;14.25;99088.59;5037016;28;20032;-73
2022/01/15 01:55:12;;;;;;;0.10;0.10;;;;;;;23.49;14.29;99099.81;5036730;28;20025;-73
2022/01/15 01:57:37;;;;;;;0.10;0.10;;;;;;;23.51;14.42;99103.03;5019294;28;20032;-73
2022/01/15 02:00:05;;;;;;;0.10;0.10;;;;;;;23.44;14.18;99114.38;5036676;28;20112;-73
2022/01/15 02:02:30;;;;;;;0.10;0.10;;;;;;;23.38;14.39;99118.31;5018930;28;20040;-73
2022/01/15 02:04:57;;;;;;;0.10;0.10;;;;;;;23.38;14.33;99124.56;5036469;28;20029;-74
2022/01/15 02:07:24;;;;;;;0.15;0.10;;;;;;;23.48;14.36;99123.56;5036844;28;20100;-74
2022/01/15 02:09:49;;;;;;;0.10;0.10;;;;;;;23.46;14.11;99136.69;5035298;28;20036;-73
2022/01/15 02:12:15;;;;;;;0.10;0.10;;;;;;;23.40;14.34;99146.91;5035183;28;20026;-73
2022/01/15 02:14:40;;;;;;;0.10;0.10;;;;;;;23.51;14.23;99152.13;5036582;28;20036;-73
2022/01/15 02:17:06;;;;;;;0.10;0.10;;;;;;;23.46;14.21;99147.59;5036622;28;20029;-73
2022/01/15 02:19:32;;;;;;;0.10;0.10;;;;;;;23.43;14.19;99162.63;5002232;28;20432;-73
2022/01/15 02:24:41;;;;;;;0.10;0.10;;;;;;;23.36;14.27;99164.16;5036847;28;20110;-73
2022/01/15 02:27:07;;;;;;;0.10;0.10;;;;;;;23.44;14.25;99164.25;5036657;28;20456;-73
2022/01/15 02:29:32;;;;;;;0.10;0.10;;;;;;;23.43;14.37;99179.00;5036611;28;20038;-73
2022/01/15 02:31:57;;;;;;;0.10;0.10;;;;;;;23.41;14.20;99173.03;5036626;28;20032;-73
2022/01/15 02:34:23;;;;;;;0.10;0.10;;;;;;;23.50;14.30;99175.06;5036078;28;20467;-73
2022/01/15 02:36:48;;;;;;;0.10;0.10;;;;;;;23.42;14.20;99174.66;5036282;28;20032;-73
2022/01/15 02:39:14;;;;;;;0.10;0.10;;;;;;;23.48;14.03;99188.19;5035896;28;20037;-73
2022/01/15 02:41:40;;;;;;;0.17;0.17;;;;;;;23.49;13.99;99192.53;5035594;28;20033;-73
2022/01/15 02:44:09;;;;;;;0.10;0.10;;;;;;;23.38;14.35;99200.09;5036284;28;20026;-73
2022/01/15 02:48:00;;;;;;;0.10;0.10;;;;;;;23.34;14.07;99205.34;5035632;28;20051;-73
2022/01/15 02:49:20;;;;;;;0.10;0.10;;;;;;;23.44;14.07;99207.88;5035671;28;20124;-73
2022/01/15 02:51:45;;;;;;;0.10;0.10;;;;;;;23.40;14.22;99206.03;5035927;28;20030;-72
2022/01/15 02:54:11;;;;;;;0.10;0.10;;;;;;;23.46;14.20;99212.19;5035512;28;20376;-72
2022/01/15 02:56:38;;;;;;;0.10;0.10;;;;;;;23.49;14.07;99217.06;5036011;28;20045;-72
2022/01/15 02:59:05;;;;;;;0.10;0.10;;;;;;;23.41;14.15;99210.41;5035962;28;20025;-72
2022/01/15 03:01:31;;;;;;;0.10;0.10;;;;;;;23.37;14.06;99223.84;5035771;28;20048;-72
2022/01/15 03:03:56;;;;;;;0.10;0.10;;;;;;;23.39;14.01;99218.88;5035629;28;20148;-74
2022/01/15 03:06:21;;;;;;;0.13;0.13;;;;;;;23.45;14.26;99216.84;5035561;28;20029;-73
2022/01/15 03:08:47;;;;;;;0.10;0.10;;;;;;;23.55;13.98;99221.31;5018134;28;20040;-73
2022/01/15 03:11:13;;;;;;;0.10;0.10;;;;;;;23.43;14.08;99219.88;5035648;28;20060;-73
2022/01/15 03:13:39;;;;;;;0.10;0.10;;;;;;;23.35;14.14;99238.84;5035648;28;20460;-73
2022/01/15 03:16:05;;;;;;;0.10;0.10;;;;;;;23.52;13.92;99246.47;5035497;28;20034;-73
2022/01/15 03:18:30;;;;;;;0.10;0.10;;;;;;;23.42;14.08;99245.53;5035721;28;20380;-73
2022/01/15 03:20:56;;;;;;;0.10;0.10;;;;;;;23.42;14.16;99258.34;5035148;28;20025;-74
2022/01/15 03:23:21;;;;;;;0.10;0.10;;;;;;;23.50;13.98;99263.13;5035317;28;20029;-74
2022/01/15 03:25:47;;;;;;;0.10;0.10;;;;;;;23.43;14.03;99271.69;5035445;28;20048;-73
2022/01/15 03:28:12;;;;;;;0.10;0.10;;;;;;;23.52;13.79;99273.72;5035119;28;20407;-73
2022/01/15 03:30:38;;;;;;;0.10;0.10;;;;;;;23.46;13.86;99272.19;5034968;28;20025;-73
2022/01/15 03:33:03;;;;;;;0.10;0.10;;;;;;;23.34;13.91;99276.22;5034890;28;20026;-72
2022/01/15 03:35:29;;;;;;;0.10;0.10;;;;;;;23.36;13.92;99279.44;5035106;28;20030;-72
2022/01/15 03:37:54;;;;;;;0.10;0.10;;;;;;;23.40;13.82;99279.66;5035219;28;20029;-73
2022/01/15 03:40:19;;;;;;;0.13;0.13;;;;;;;23.44;14.03;99292.41;5035270;28;20022;-74
2022/01/15 03:42:45;;;;;;;0.15;0.10;;;;;;;23.35;13.87;99305.09;5035346;28;20376;-72
2022/01/15 03:45:11;;;;;;;0.10;0.10;;;;;;;23.41;13.98;99305.81;5035785;28;20033;-73
2022/01/15 03:47:36;;;;;;;0.10;0.10;;;;;;;23.41;14.07;99317.53;5037184;28;20041;-73
2022/01/15 03:50:02;;;;;;;0.10;0.10;;;;;;;23.43;13.85;99318.03;5037509;28;20030;-73
2022/01/15 03:52:28;;;;;;;0.10;0.10;;;;;;;23.33;14.06;99329.09;5019898;28;20027;-73
2022/01/15 03:54:53;;;;;;;0.10;0.10;;;;;;;23.35;14.09;99342.44;5037923;28;20095;-73
2022/01/15 03:57:19;;;;;;;0.10;0.10;;;;;;;23.49;13.95;99337.03;5034949;28;20044;-73
2022/01/15 03:59:44;;;;;;;0.10;0.10;;;;;;;23.37;13.86;99334.78;5034851;28;20030;-73
2022/01/15 04:02:09;;;;;;;0.10;0.10;;;;;;;23.32;13.93;99341.13;5034435;28;20067;-73
2022/01/15 04:04:35;;;;;;;0.10;0.10;;;;;;;23.49;13.67;99340.59;5034572;28;20032;-73
2022/01/15 04:07:01;;;;;;;0.10;0.10;;;;;;;23.41;13.71;99352.97;5034201;28;20376;-73
2022/01/15 04:09:26;;;;;;;0.10;0.10;;;;;;;23.41;13.80;99361.16;5034458;28;20036;-73
2022/01/15 04:11:51;;;;;;;0.10;0.10;;;;;;;23.42;13.81;99364.69;5034500;28;20025;-73
2022/01/15 04:14:17;;;;;;;0.15;0.15;;;;;;;23.41;13.94;99365.81;5034339;28;20030;-73
2022/01/15 04:16:42;;;;;;;0.10;0.10;;;;;;;23.32;13.75;99373.84;5034512;28;20393;-73
2022/01/15 04:19:08;;;;;;;0.10;0.10;;;;;;;23.36;13.72;99363.97;5034333;28;20403;-73
2022/01/15 04:21:34;;;;;;;0.13;0.13;;;;;;;23.32;13.82;99365.69;5034156;28;20076;-73
2022/01/15 04:24:00;;;;;;;0.10;0.10;;;;;;;23.33;13.69;99377.38;5033985;28;20131;-73
2022/01/15 04:26:26;;;;;;;0.10;0.10;;;;;;;23.44;13.60;99389.75;5033886;28;20025;-73
2022/01/15 04:28:52;;;;;;;0.20;0.20;;;;;;;23.37;13.82;99390.13;5033970;28;20475;-73
2022/01/15 04:31:18;;;;;;;0.10;0.10;;;;;;;23.33;13.78;99383.63;5016446;28;20021;-72
2022/01/15 04:33:43;;;;;;;0.10;0.10;;;;;;;23.30;13.81;99402.50;5033777;28;20029;-72
2022/01/15 04:36:09;;;;;;;0.10;0.10;;;;;;;23.36;13.65;99399.41;5033913;28;20454;-73
2022/01/15 04:38:37;;;;;;;0.10;0.10;;;;;;;23.48;13.65;99411.78;5034056;28;20030;-74
2022/01/15 04:41:03;;;;;;;0.10;0.10;;;;;;;23.39;13.74;99414.38;5034542;28;20056;-73
2022/01/15 04:43:28;;;;;;;0.20;0.20;;;;;;;23.39;13.77;99417.09;5033887;28;20048;-73
2022/01/15 04:45:54;;;;;;;0.10;0.10;;;;;;;23.46;13.48;99419.41;5034012;28;20403;-73
2022/01/15 04:48:19;;;;;;;0.10;0.10;;;;;;;23.39;13.61;99426.06;5033701;28;20469;-73
2022/01/15 04:50:44;;;;;;;0.17;0.10;;;;;;;23.29;13.51;99419.97;5033832;28;20026;-73
2022/01/15 04:53:10;;;;;;;0.20;0.20;;;;;;;23.40;13.48;99435.88;5033989;28;20028;-73
2022/01/15 04:55:36;;;;;;;0.13;0.13;;;;;;;23.35;13.66;99433.25;5033757;28;20036;-73
2022/01/15 04:58:02;;;;;;;0.10;0.10;;;;;;;23.36;13.67;99437.56;5033447;28;20025;-73
2022/01/15 05:00:27;;;;;;;0.10;0.10;;;;;;;23.39;13.54;99436.97;5033746;28;20067;-73
2022/01/15 05:02:53;;;;;;;0.10;0.10;;;;;;;23.32;13.36;99442.00;5033468;28;20026;-73
2022/01/15 05:05:18;;;;;;;0.10;0.10;;;;;;;23.37;13.33;99441.09;5033295;28;20041;-73
2022/01/15 05:07:44;;;;;;;0.10;0.10;;;;;;;23.31;13.60;99434.13;5033655;28;20041;-73
2022/01/15 05:10:11;;;;;;;0.10;0.10;;;;;;;23.28;13.50;99440.94;5033306;28;20395;-73
2022/01/15 05:12:43;;;;;;;0.10;0.10;;;;;;;23.31;13.48;99445.81;5033286;28;20499;-73
2022/01/15 05:15:09;;;;;;;0.10;0.10;;;;;;;23.37;13.35;99446.56;5033269;28;20502;-73
2022/01/15 05:17:34;;;;;;;0.10;0.10;;;;;;;23.30;13.35;99446.13;5034114;28;20026;-74
2022/01/15 05:19:59;;;;;;;0.10;0.10;;;;;;;23.37;13.42;99455.56;5033268;28;20469;-73
2022/01/15 05:22:25;;;;;;;0.10;0.10;;;;;;;23.34;13.22;99455.34;5033551;28;20033;-73
2022/01/15 05:24:50;;;;;;;0.10;0.10;;;;;;;23.32;13.26;99461.09;5033177;28;20030;-73
2022/01/15 05:27:16;;;;;;;0.10;0.10;;;;;;;23.36;13.43;99464.84;5033436;28;20021;-73
2022/01/15 05:29:41;;;;;;;0.10;0.10;;;;;;;23.31;13.41;99467.63;5033059;28;20044;-74
2022/01/15 05:32:07;;;;;;;0.10;0.10;;;;;;;23.24;13.24;99473.44;5033374;28;20037;-73
2022/01/15 05:34:32;;;;;;;0.10;0.10;;;;;;;23.37;13.11;99484.72;5033246;28;20080;-74
2022/01/15 05:36:58;;;;;;;0.10;0.10;;;;;;;23.30;13.25;99482.38;5033278;28;20062;-74
2022/01/15 05:39:23;;;;;;;0.13;0.10;;;;;;;23.22;13.38;99492.00;5033277;28;20021;-73
2022/01/15 05:41:49;;;;;;;0.10;0.10;;;;;;;23.31;13.36;99500.34;5033260;28;20025;-73
2022/01/15 05:44:14;;;;;;;0.10;0.10;;;;;;;23.25;13.42;99501.53;5033032;28;20033;-73
2022/01/15 05:46:39;;;;;;;0.10;0.10;;;;;;;23.25;13.28;99509.72;5032639;28;20052;-73
2022/01/15 05:49:05;;;;;;;0.10;0.10;;;;;;;23.41;13.28;99516.56;5033143;28;20021;-73
2022/01/15 05:51:31;;;;;;;0.10;0.10;;;;;;;23.26;13.29;99516.78;5033707;28;20029;-73
2022/01/15 05:54:00;;;;;;;0.10;0.10;;;;;;;23.23;13.29;99525.53;5033160;28;20030;-73
2022/01/15 05:56:25;;;;;;;0.10;0.10;;;;;;;23.30;13.20;99526.00;5032764;28;20452;-73
2022/01/15 05:58:51;;;;;;;0.10;0.10;;;;;;;23.23;13.04;99529.09;5033239;28;20022;-73
2022/01/15 06:01:16;;;;;;;0.10;0.10;;;;;;;23.27;13.28;99523.03;5033240;28;20084;-74
2022/01/15 06:03:42;;;;;;;0.10;0.10;;;;;;;23.26;13.16;99530.41;5033019;28;20376;-73
2022/01/15 06:06:07;;;;;;;0.10;0.10;;;;;;;23.19;13.25;99533.47;5032933;28;20040;-73
2022/01/15 06:08:32;;;;;;;0.20;0.20;;;;;;;23.38;13.09;99546.34;5032823;28;20029;-73
2022/01/15 06:10:58;;;;;;;0.10;0.10;;;;;;;23.31;13.13;99554.88;5032788;28;20083;-73
2022/01/15 06:13:23;;;;;;;0.10;0.10;;;;;;;23.29;13.12;99562.53;5033170;28;20026;-72
2022/01/15 06:15:48;;;;;;;0.10;0.10;;;;;;;23.35;12.90;99566.81;5032841;28;20028;-73
2022/01/15 06:18:14;;;;;;;0.10;0.10;;;;;;;23.32;13.04;99575.59;5036386;28;20473;-74
2022/01/15 06:20:39;;;;;;;0.20;0.20;;;;;;;23.22;12.92;99584.69;5036669;28;20025;-74
2022/01/15 06:23:05;;;;;;;0.20;0.20;;;;;;;23.33;13.10;99590.81;5036585;28;20044;-73
2022/01/15 06:25:30;;;;;;;0.32;0.10;;;;;;;23.32;13.12;99602.00;5036509;28;20021;-73
2022/01/15 06:27:55;;;;;;;0.10;0.10;;;;;;;23.33;12.85;99609.91;5036516;28;20033;-74
2022/01/15 06:30:21;;;;;;;0.10;0.10;;;;;;;23.30;12.80;99606.94;5036535;28;20084;-73
2022/01/15 06:32:46;;;;;;;0.20;0.20;;;;;;;23.25;12.88;99605.91;5036183;28;20033;-73
2022/01/15 06:35:13;;;;;;;0.20;0.20;;;;;;;23.28;12.79;99612.69;5036855;28;20044;-73
2022/01/15 06:37:38;;;;;;;0.10;0.10;;;;;;;23.31;12.93;99616.75;5036231;28;20017;-72
2022/01/15 06:40:04;;;;;;;0.10;0.10;;;;;;;23.31;12.97;99616.75;5036423;28;20029;-73
2022/01/15 06:42:30;;;;;;;0.10;0.10;;;;;;;23.20;13.01;99613.34;5036911;28;20101;-73
2022/01/15 06:44:55;;;;;;;0.15;0.15;;;;;;;23.24;12.96;99620.63;5036656;28;20573;-73
2022/01/15 06:47:42;;;;;;;0.10;0.10;;;;;;;23.32;12.82;99627.38;5036776;28;20079;-73
2022/01/15 06:50:08;;;;;;;0.10;0.10;;;;;;;23.28;12.90;99617.34;5036428;28;20114;-73
2022/01/15 06:52:36;;;;;;;0.17;0.17;;;;;;;23.15;13.10;99632.50;5036322;28;20108;-74
2022/01/15 06:55:03;;;;;;;0.10;0.10;;;;;;;23.16;13.03;99634.94;5038086;28;20032;-72
2022/01/15 06:57:29;;;;;;;0.10;0.10;;;;;;;23.30;12.75;99624.13;5050773;28;20480;-73
2022/01/15 06:59:54;;;;;;;0.10;0.10;;;;;;;23.27;12.76;99638.34;5049787;28;20090;-72
2022/01/15 07:02:19;;;;;;;0.10;0.10;;;;;;;23.18;12.65;99640.06;5048092;28;20029;-73
2022/01/15 07:04:45;;;;;;;0.52;0.20;;;;;;;23.29;12.69;99638.84;5045687;28;20060;-74
2022/01/15 07:07:10;;;;;;;0.20;0.20;;;;;;;23.26;12.75;99633.97;5047016;28;20029;-73
2022/01/15 07:09:36;;;;;;;0.10;0.10;;;;;;;23.22;12.67;99652.03;5056300;28;20005;-73
2022/01/15 07:12:02;;;;;;;0.10;0.10;;;;;;;23.24;12.49;99652.53;5053069;28;20032;-73
2022/01/15 07:14:27;;;;;;;0.10;0.10;;;;;;;23.27;12.66;99657.44;5053197;28;20052;-73
2022/01/15 07:16:53;;;;;;;0.20;0.20;;;;;;;23.22;12.55;99665.66;5052746;28;20406;-74
2022/01/15 07:19:18;;;;;;;0.10;0.10;;;;;;;23.25;12.69;99671.34;5055004;28;20033;-74
2022/01/15 07:21:43;;;;;;;0.10;0.10;;;;;;;23.17;12.65;99671.16;5055503;28;20021;-73
2022/01/15 07:24:11;;;;;;;0.10;0.10;;;;;;;23.22;12.70;99682.00;5055911;28;20523;-73
2022/01/15 07:26:36;;;;;;;0.10;0.10;;;;;;;23.31;12.63;99679.47;5040295;28;20018;-73
2022/01/15 07:29:02;;;;;;;0.10;0.10;;;;;;;23.15;12.83;99678.81;5056581;28;20045;-72
2022/01/15 07:31:27;;;;;;;0.20;0.20;;;;;;;23.27;12.43;99679.25;5055068;28;20051;-73
2022/01/15 07:33:53;;;;;;;0.28;0.10;;;;;;;23.23;12.43;99683.63;5056170;28;20029;-74
2022/01/15 07:36:20;;;;;;;0.10;0.10;;;;;;;23.13;12.67;99687.28;5055254;28;20044;-73
2022/01/15 07:38:45;;;;;;;0.20;0.20;;;;;;;23.24;12.56;99685.25;5054697;28;20030;-73
2022/01/15 07:41:13;;;;;;;0.10;0.10;;;;;;;23.25;12.40;99684.16;5054413;28;20042;-73
2022/01/15 07:43:38;;;;;;;0.20;0.20;;;;;;;23.14;12.59;99701.72;5054760;28;20042;-73
2022/01/15 07:46:04;;;;;;;0.10;0.10;;;;;;;23.27;12.31;99706.50;5055937;28;20065;-73
2022/01/15 07:48:29;;;;;;;0.10;0.10;;;;;;;23.21;12.45;99705.72;5053132;28;20018;-73
2022/01/15 07:50:55;;;;;;;0.10;0.10;;;;;;;23.21;12.34;99713.88;5051872;28;20034;-73
2022/01/15 07:53:20;;;;;;;0.20;0.20;;;;;;;23.24;12.57;99718.78;5053966;28;20029;-73
2022/01/15 07:55:46;;;;;;;0.10;0.10;;;;;;;23.22;12.48;99715.53;5053685;28;20021;-72
2022/01/15 07:58:11;;;;;;;0.10;0.10;;;;;;;23.21;12.39;99726.72;5053813;28;20017;-73
2022/01/15 08:00:36;;;;;;;0.10;0.10;;;;;;;23.28;12.29;99724.47;5053227;28;20032;-74
2022/01/15 08:03:02;;;;;;;0.10;0.10;;;;;;;23.30;12.17;99722.28;5053679;28;20005;-74
2022/01/15 08:05:27;;;;;;;0.20;0.20;;;;;;;23.26;12.28;99726.66;5049486;28;20100;-74
2022/01/15 08:07:53;;;;;;;0.30;0.15;;;;;;;23.23;12.23;99738.13;5037987;28;20029;-73
2022/01/15 08:10:18;;;;;;;0.13;0.13;;;;;;;23.18;12.35;99736.31;5034443;28;20029;-73
2022/01/15 08:12:48;;;;;;;0.10;0.10;;;;;;;23.22;12.50;99740.06;5035769;28;20021;-74
2022/01/15 08:15:15;;;;;;;0.10;0.10;;;;;;;23.20;12.26;99742.28;5035420;28;20495;-73
2022/01/15 08:17:40;;;;;;;0.20;0.20;;;;;;;23.20;12.46;99744.19;5035672;28;20026;-73
2022/01/15 08:20:06;;;;;;;0.10;0.10;;;;;;;23.26;12.16;99748.47;5034538;28;20475;-73
2022/01/15 08:22:33;;;;;;;0.20;0.20;;;;;;;23.24;12.37;99746.03;5034123;28;20204;-73
2022/01/15 08:24:59;;;;;;;0.20;0.20;;;;;;;23.20;12.46;99753.16;5034093;28;20441;-73
2022/01/15 08:27:24;;;;;;;0.10;0.10;;;;;;;23.30;12.36;99759.63;5034028;28;20041;-73
2022/01/15 08:29:49;;;;;;;0.10;0.10;;;;;;;23.22;12.50;99761.06;5034314;28;20021;-73
2022/01/15 08:32:15;;;;;;;0.20;0.20;;;;;;;23.17;12.19;99772.00;5033913;28;20464;-73
2022/01/15 08:34:42;;;;;;;0.20;0.20;;;;;;;23.23;12.32;99770.84;5034011;28;20396;-73
2022/01/15 08:37:08;;;;;;;0.10;0.10;;;;;;;23.22;12.32;99770.03;5034902;28;20082;-72
2022/01/15 08:39:35;;;;;;;0.10;0.10;;;;;;;23.16;12.38;99776.66;5033278;28;20025;-73
2022/01/15 08:42:01;;;;;;;0.10;0.10;;;;;;;23.16;12.21;99776.66;5034059;28;20037;-73
2022/01/15 08:44:26;;;;;;;0.20;0.17;;;;;;;23.19;12.15;99780.72;5034783;28;20096;-73
2022/01/15 08:46:52;;;;;;;0.10;0.10;;;;;;;23.22;12.02;99785.59;5033547;28;20087;-73
2022/01/15 08:49:18;;;;;;;0.10;0.10;;;;;;;23.17;12.18;99793.81;5033917;28;20371;-73
2022/01/15 08:51:44;;;;;;;0.20;0.20;;;;;;;23.14;12.31;99797.13;5033575;28;20028;-73
2022/01/15 08:54:09;;;;;;;0.20;0.20;;;;;;;23.24;12.11;99795.09;5033739;28;20030;-72
2022/01/15 08:56:34;;;;;;;0.10;0.10;;;;;;;23.32;12.00;99803.75;5033661;28;20030;-72
2022/01/15 08:59:00;;;;;;;0.10;0.10;;;;;;;23.23;12.07;99809.00;5033993;28;20343;-74
2022/01/15 09:01:25;;;;;;;0.10;0.10;;;;;;;23.35;11.83;99817.66;5033756;28;20025;-74
2022/01/15 09:03:51;;;;;;;0.10;0.10;;;;;;;23.24;12.15;99814.19;5033705;28;20034;-73
2022/01/15 09:06:16;;;;;;;0.10;0.10;;;;;;;23.21;12.01;99812.03;5033590;28;20371;-72
2022/01/15 09:08:43;;;;;;;0.10;0.10;;;;;;;23.24;12.15;99816.09;5033711;28;20076;-73
2022/01/15 09:11:08;;;;;;;0.10;0.10;;;;;;;23.14;12.10;99805.28;5034072;28;20410;-73
2022/01/15 09:13:34;;;;;;;0.20;0.20;;;;;;;23.14;12.06;99816.19;5033549;28;20029;-73
2022/01/15 09:15:59;;;;;;;0.10;0.10;;;;;;;23.23;11.96;99809.84;5033443;28;20403;-73
2022/01/15 09:18:25;;;;;;;0.10;0.10;;;;;;;23.20;12.06;99820.50;5033612;28;20025;-73
2022/01/15 09:20:50;;;;;;;0.10;0.10;;;;;;;23.10;12.17;99820.59;5033227;28;20383;-74
2022/01/15 09:23:17;;;;;;;0.10;0.10;;;;;;;23.13;11.96;99814.56;5033373;28;20119;-73
2022/01/15 09:25:42;;;;;;;0.20;0.20;;;;;;;23.14;12.12;99825.16;5033202;28;20026;-73
2022/01/15 09:30:51;;;;;;;0.28;0.20;;;;;;;23.22;11.88;99826.47;5033465;28;20032;-73
2022/01/15 09:33:17;;;;;;;0.13;0.13;;;;;;;23.20;11.90;99834.94;5033468;28;20371;-73
2022/01/15 09:35:42;;;;;;;0.20;0.20;;;;;;;23.17;12.03;99831.97;5033344;28;20037;-73
2022/01/15 09:38:08;;;;;;;0.10;0.10;;;;;;;23.18;11.99;99830.88;5033349;28;20075;-73
2022/01/15 09:40:33;;;;;;;0.30;0.20;;;;;;;23.09;11.90;99835.31;5033329;28;20029;-74
2022/01/15 09:42:59;;;;;;;0.10;0.10;;;;;;;23.28;11.68;99847.13;5032975;28;20071;-73
2022/01/15 09:45:24;;;;;;;0.10;0.10;;;;;;;23.12;11.96;99856.53;5015318;28;20064;-73
2022/01/15 09:47:54;;;;;;;0.10;0.10;;;;;;;23.23;11.95;99850.75;5033112;28;20387;-72
2022/01/15 09:50:19;;;;;;;0.20;0.20;;;;;;;23.33;11.88;99851.75;5033202;28;20159;-73
2022/01/15 09:52:45;;;;;;;0.10;0.10;;;;;;;23.17;11.71;99848.34;5036077;28;20033;-74
2022/01/15 09:55:11;;;;;;;0.22;0.10;;;;;;;23.03;11.85;99857.13;5036749;28;20391;-73
2022/01/15 09:57:37;;;;;;;0.20;0.20;;;;;;;23.30;11.63;99860.47;5036737;28;20032;-73
2022/01/15 10:00:08;;;;;;;0.17;0.10;;;;;;;23.20;11.85;99858.66;5036737;28;20057;-73
2022/01/15 10:02:34;;;;;;;0.30;0.25;;;;;;;23.19;11.76;99870.66;5037345;28;20101;-72
2022/01/15 10:04:59;;;;;;;0.10;0.10;;;;;;;23.19;11.91;99870.66;5036862;28;20091;-73
2022/01/15 10:07:27;;;;;;;0.20;0.20;;;;;;;23.08;11.98;99878.09;5036786;28;20021;-73
2022/01/15 10:09:53;;;;;;;0.20;0.20;;;;;;;23.10;11.86;99872.38;5036747;28;20037;-73
2022/01/15 10:12:29;;;;;;;0.38;0.30;;;;;;;23.12;11.94;99884.59;5036659;28;20044;-73
2022/01/15 10:15:01;;;;;;;0.17;0.17;;;;;;;23.20;11.72;99885.94;5036593;28;20029;-73
2022/01/15 10:17:28;;;;;;;0.20;0.20;;;;;;;23.28;11.57;99888.03;5036509;28;20514;-73
2022/01/15 10:19:54;;;;;;;0.20;0.20;;;;;;;23.20;11.69;99888.66;5036639;28;20025;-73
2022/01/15 10:22:20;;;;;;;0.10;0.10;;;;;;;23.11;11.86;99890.34;5019190;28;20353;-73
2022/01/15 10:24:56;;;;;;;0.20;0.20;;;;;;;23.11;11.93;99887.63;5036718;28;20472;-73
2022/01/15 10:27:30;;;;;;;0.30;0.20;;;;;;;23.16;11.69;99901.22;5037264;28;20091;-73
2022/01/15 10:30:06;;;;;;;0.20;0.20;;;;;;;23.13;11.63;99890.88;5036763;28;20025;-73
2022/01/15 10:32:34;;;;;;;0.10;0.10;;;;;;;23.16;11.64;99893.88;5036597;28;20088;-73
2022/01/15 10:35:00;;;;;;;0.15;0.15;;;;;;;23.14;11.64;99897.97;5036434;28;20060;-73
2022/01/15 10:37:34;;;;;;;0.25;0.20;;;;;;;23.14;11.56;99903.41;5036432;28;20024;-73
2022/01/15 10:40:11;;;;;;;0.10;0.10;;;;;;;23.15;11.76;99894.16;5036639;28;20033;-74
2022/01/15 10:42:37;;;;;;;0.22;0.20;;;;;;;23.13;11.49;99912.66;5036355;28;20029;-73
2022/01/15 10:45:12;;;;;;;0.20;0.20;;;;;;;23.17;11.53;99898.19;5036391;28;20067;-73
2022/01/15 10:47:47;;;;;;;0.10;0.10;;;;;;;23.13;11.77;99908.06;5036232;28;20017;-73
2022/01/15 10:50:23;;;;;;;0.20;0.20;;;;;;;23.21;11.52;99920.25;5036217;28;20029;-74
2022/01/15 10:52:48;;;;;;;0.10;0.10;;;;;;;23.16;11.44;99906.66;5036036;28;20025;-73
2022/01/15 10:55:15;;;;;;;0.22;0.20;;;;;;;23.20;11.63;99922.19;5035936;28;20029;-72
2022/01/15 10:57:53;;;;;;;0.20;0.20;;;;;;;23.15;11.66;99921.41;5035949;28;20036;-73
2022/01/15 11:00:22;;;;;;;0.10;0.10;;;;;;;23.20;11.61;99914.00;5035860;28;20048;-73
2022/01/15 11:02:50;;;;;;;1.73;0.30;;;;;;;23.11;11.51;99928.50;5035142;28;20080;-73
2022/01/15 11:05:22;;;;;;;0.20;0.20;;;;;;;23.21;11.56;99933.88;5035844;28;20099;-73
2022/01/15 11:07:48;;;;;;;0.10;0.10;;;;;;;23.18;11.56;99937.16;5017627;28;20049;-73
2022/01/15 11:10:13;;;;;;;0.30;0.30;;;;;;;23.17;11.59;99943.72;5035668;28;20479;-73
2022/01/15 11:12:39;;;;;;;0.28;0.25;;;;;;;23.16;11.57;99939.38;5035659;28;20025;-73
2022/01/15 11:15:06;;;;;;;0.17;0.17;;;;;;;23.17;11.38;99941.00;5035186;28;20033;-73
2022/01/15 11:17:32;;;;;;;0.10;0.10;;;;;;;23.22;11.52;99940.97;5035245;28;20031;-73
2022/01/15 11:19:57;;;;;;;0.10;0.10;;;;;;;23.28;10.96;99942.56;5017992;28;20029;-73
2022/01/15 11:22:23;;;;;;;0.20;0.20;;;;;;;23.22;11.44;99946.44;5017915;28;20501;-73
2022/01/15 11:24:49;;;;;;;0.20;0.20;;;;;;;23.21;11.31;99951.03;5035554;28;20096;-73
2022/01/15 11:27:15;;;;;;;0.10;0.10;;;;;;;23.18;11.43;99950.78;5035540;28;20029;-73
2022/01/15 11:29:41;;;;;;;0.20;0.20;;;;;;;23.11;11.59;99953.88;5035443;28;20022;-73
2022/01/15 11:32:07;;;;;;;0.20;0.20;;;;;;;23.13;11.66;99956.28;5017351;28;20021;-73
2022/01/15 11:34:32;;;;;;;0.22;0.22;;;;;;;23.20;11.39;99967.72;5017177;28;20029;-73
2022/01/15 11:36:57;;;;;;;0.20;0.20;;;;;;;23.22;11.36;99966.31;5035129;28;20028;-73
2022/01/15 11:39:29;;;;;;;0.20;0.20;;;;;;;23.17;11.36;99952.72;5035119;28;20026;-73
2022/01/15 11:41:55;;;;;;;0.22;0.10;;;;;;;23.16;11.44;99951.09;5035147;28;20119;-73
2022/01/15 11:44:29;;;;;;;0.20;0.20;;;;;;;23.12;11.51;99954.66;5035083;28;20034;-73
2022/01/15 11:46:57;;;;;;;0.17;0.15;;;;;;;23.19;11.30;99957.88;5034806;28;20156;-73
2022/01/15 11:49:31;;;;;;;0.38;0.30;;;;;;;23.11;11.30;99966.66;5034677;28;20040;-73
2022/01/15 11:52:05;;;;;;;0.20;0.20;;;;;;;23.20;11.16;99956.81;5035032;28;20029;-73
2022/01/15 11:54:31;;;;;;;;;;;;;;;23.31;11.35;99961.06;5034935;28;20428;-71